Time;durP1;ratioP1;P1;durP2;ratioP2;P2;SDS_P1;SDS_P2;PMS_P1;PMS_P2;Temp;Humidity;BMP_temperature;BMP_pressure;BME280_temperature;BME280_humidity;BME280_pressure;Samples;Min_cycle;Max_cycle;Signal;HPM_P1;HPM_P2
2023/07/24 00:00:19;;;;;;;8.37;6.83;;;22.10;91.20;;;;;;10322120;28;20303;-85
2023/07/24 00:05:21;;;;;;;8.33;7.47;;;22.10;90.80;;;;;;10321198;28;20212;-86
2023/07/24 00:10:25;;;;;;;9.90;8.23;;;21.90;92.00;;;;;;10321980;28;20648;-87
2023/07/24 00:15:27;;;;;;;11.40;7.50;;;21.60;93.30;;;;;;10322350;28;20231;-87
2023/07/24 00:20:29;;;;;;;9.40;8.37;;;21.50;92.70;;;;;;10333340;28;20564;-86
2023/07/24 00:25:33;;;;;;;12.33;9.27;;;21.40;93.20;;;;;;10330257;28;20223;-89
2023/07/24 00:30:35;;;;;;;9.30;8.40;;;21.40;95.30;;;;;;10331226;28;20199;-86
2023/07/24 00:35:37;;;;;;;10.80;9.50;;;21.10;95.60;;;;;;10327073;28;20663;-86
2023/07/24 00:40:40;;;;;;;10.57;9.40;;;21.00;96.40;;;;;;10345180;28;20220;-87
2023/07/24 00:45:43;;;;;;;11.10;9.17;;;20.80;96.60;;;;;;10343982;28;20223;-86
2023/07/24 00:50:46;;;;;;;9.43;8.57;;;20.60;97.00;;;;;;10329200;28;20227;-86
2023/07/24 00:55:49;;;;;;;9.90;9.00;;;20.50;97.00;;;;;;10343352;28;20680;-86
2023/07/24 01:00:52;;;;;;;11.47;8.70;;;20.40;97.10;;;;;;10324133;28;20285;-86
2023/07/24 01:05:56;;;;;;;9.77;8.77;;;20.40;97.50;;;;;;10322493;28;20315;-86
2023/07/24 01:11:08;;;;;;;8.90;7.70;;;20.50;97.30;;;;;;10326799;28;20244;-86
2023/07/24 01:16:15;;;;;;;9.87;8.87;;;20.50;97.10;;;;;;10326834;28;20581;-86
2023/07/24 01:21:21;;;;;;;9.97;8.50;;;20.40;97.20;;;;;;10330137;28;20238;-86
2023/07/24 01:26:25;;;;;;;9.33;8.43;;;20.40;96.70;;;;;;10332021;28;20227;-87
2023/07/24 01:31:27;;;;;;;11.50;8.20;;;20.40;97.40;;;;;;10329983;28;20219;-86
2023/07/24 01:36:29;;;;;;;10.23;7.80;;;20.40;97.90;;;;;;10327255;28;21073;-86
2023/07/24 01:41:33;;;;;;;9.80;8.23;;;20.40;98.00;;;;;;10330406;28;20748;-87
2023/07/24 01:46:35;;;;;;;10.50;8.20;;;20.50;97.90;;;;;;10343181;28;20223;-86
2023/07/24 01:51:37;;;;;;;9.50;8.50;;;20.50;96.60;;;;;;10328041;28;20862;-87
2023/07/24 01:56:41;;;;;;;8.00;7.20;;;20.50;96.70;;;;;;10328500;28;20200;-87
2023/07/24 02:01:43;;;;;;;9.63;8.63;;;20.50;95.70;;;;;;10327307;28;20226;-86
2023/07/24 02:06:45;;;;;;;9.13;8.23;;;20.60;95.10;;;;;;10342962;28;20231;-86
2023/07/24 02:11:48;;;;;;;9.40;8.40;;;20.70;94.40;;;;;;10326923;28;20668;-86
2023/07/24 02:16:51;;;;;;;7.80;7.00;;;20.80;95.10;;;;;;10332110;28;20715;-87
2023/07/24 02:21:53;;;;;;;10.40;8.53;;;20.80;94.70;;;;;;10330429;28;20925;-86
2023/07/24 02:26:57;;;;;;;8.33;7.53;;;20.80;94.40;;;;;;10322039;28;20223;-87
2023/07/24 02:32:00;;;;;;;9.07;6.53;;;20.90;94.70;;;;;;10321540;28;20310;-86
2023/07/24 02:37:02;;;;;;;10.93;8.63;;;20.90;94.40;;;;;;10324078;28;20456;-87
2023/07/24 02:42:06;;;;;;;8.90;7.73;;;20.90;94.50;;;;;;10327382;28;20228;-87
2023/07/24 02:47:08;;;;;;;10.37;8.93;;;20.90;93.80;;;;;;10310602;28;20323;-87
2023/07/24 02:52:10;;;;;;;8.67;7.63;;;21.00;93.80;;;;;;10312973;28;20228;-88
2023/07/24 02:57:14;;;;;;;9.53;8.53;;;21.00;93.90;;;;;;10325514;28;20235;-87
2023/07/24 03:02:16;;;;;;;8.20;7.50;;;20.90;93.60;;;;;;10347880;28;20243;-86
2023/07/24 03:07:18;;;;;;;9.70;8.70;;;20.90;93.30;;;;;;10324694;28;20234;-86
2023/07/24 03:12:21;;;;;;;8.73;7.73;;;20.90;93.00;;;;;;10339538;23;20342;-79
2023/07/24 03:17:24;;;;;;;9.10;8.00;;;20.80;93.30;;;;;;10314598;28;20201;-80
2023/07/24 03:22:26;;;;;;;8.07;7.27;;;20.80;93.30;;;;;;10329872;28;20224;-79
2023/07/24 03:27:30;;;;;;;9.50;7.40;;;20.70;93.10;;;;;;10317448;28;20298;-80
2023/07/24 03:32:32;;;;;;;8.87;7.90;;;20.60;93.20;;;;;;10314061;28;20726;-80
2023/07/24 03:37:35;;;;;;;8.87;7.97;;;20.50;93.30;;;;;;10306504;28;20200;-80
2023/07/24 03:42:39;;;;;;;9.07;7.40;;;20.50;93.40;;;;;;10316477;28;20389;-78
2023/07/24 03:47:41;;;;;;;8.40;7.60;;;20.50;93.10;;;;;;10317667;28;20294;-79
2023/07/24 03:52:43;;;;;;;9.40;7.70;;;20.50;93.40;;;;;;10316394;28;20234;-80
2023/07/24 03:57:46;;;;;;;7.27;6.53;;;20.40;93.40;;;;;;10312864;28;20223;-80
2023/07/24 04:02:49;;;;;;;9.33;7.50;;;20.50;93.40;;;;;;10315761;28;20223;-79
2023/07/24 04:07:51;;;;;;;7.90;7.20;;;20.50;93.10;;;;;;10311802;28;20231;-78
2023/07/24 04:12:54;;;;;;;7.93;7.10;;;20.60;93.20;;;;;;10311874;28;20773;-79
2023/07/24 04:17:56;;;;;;;9.80;7.80;;;20.60;93.30;;;;;;10307131;28;20208;-82
2023/07/24 04:22:58;;;;;;;8.37;7.50;;;20.70;93.10;;;;;;10317659;28;20362;-80
2023/07/24 04:28:01;;;;;;;8.63;7.73;;;20.80;92.60;;;;;;10312817;28;20228;-82
2023/07/24 04:33:04;;;;;;;9.13;7.93;;;20.80;92.50;;;;;;10320915;28;20215;-79
2023/07/24 04:38:06;;;;;;;9.17;8.27;;;20.90;92.80;;;;;;10314088;28;20224;-81
2023/07/24 04:43:09;;;;;;;9.60;7.60;;;21.00;92.10;;;;;;10312311;28;20318;-79
2023/07/24 04:48:11;;;;;;;8.70;7.80;;;21.20;92.50;;;;;;10314838;28;21249;-81
2023/07/24 04:53:13;;;;;;;12.07;7.47;;;21.30;92.20;;;;;;10312167;28;20224;-81
2023/07/24 04:58:17;;;;;;;9.33;8.13;;;21.40;92.70;;;;;;10313170;28;20226;-81
2023/07/24 05:03:19;;;;;;;8.47;7.67;;;21.40;92.80;;;;;;10311967;28;20226;-79
2023/07/24 05:08:21;;;;;;;8.70;7.80;;;21.40;92.80;;;;;;10313333;28;20231;-81
2023/07/24 05:13:24;;;;;;;7.80;7.00;;;21.40;92.50;;;;;;10312626;28;20242;-80
2023/07/24 05:18:26;;;;;;;8.63;6.70;;;21.50;92.60;;;;;;10320132;28;20208;-80
2023/07/24 05:23:28;;;;;;;9.70;8.40;;;21.60;92.40;;;;;;10308541;28;20266;-81
2023/07/24 05:28:33;;;;;;;8.53;7.63;;;21.60;92.10;;;;;;10323424;28;20230;-79
2023/07/24 05:33:35;;;;;;;10.00;8.03;;;21.70;91.80;;;;;;10320822;28;20319;-81
2023/07/24 05:38:37;;;;;;;7.73;7.03;;;21.70;91.50;;;;;;10320637;28;20203;-79
2023/07/24 05:43:40;;;;;;;9.87;7.50;;;21.80;91.80;;;;;;10320576;28;20343;-81
2023/07/24 05:48:43;;;;;;;7.87;7.07;;;21.80;91.50;;;;;;10321654;28;20224;-80
2023/07/24 05:53:45;;;;;;;8.50;7.07;;;21.90;91.00;;;;;;10320235;28;20252;-80
2023/07/24 05:58:48;;;;;;;8.23;7.00;;;21.90;91.30;;;;;;10320259;28;20312;-81
2023/07/24 06:03:50;;;;;;;9.40;7.80;;;21.90;91.20;;;;;;10311520;28;20312;-79
2023/07/24 06:08:52;;;;;;;8.73;7.83;;;21.90;91.00;;;;;;10317721;28;20224;-81
2023/07/24 06:13:55;;;;;;;9.40;7.17;;;22.00;90.70;;;;;;10315471;28;20263;-80
2023/07/24 06:18:57;;;;;;;11.67;8.33;;;22.00;90.90;;;;;;10317536;28;20326;-80
2023/07/24 06:23:59;;;;;;;9.83;8.03;;;22.00;90.70;;;;;;10314764;28;20242;-78
2023/07/24 06:29:03;;;;;;;10.07;7.80;;;22.10;90.60;;;;;;10321498;28;20314;-79
2023/07/24 06:34:05;;;;;;;9.40;8.47;;;22.20;90.40;;;;;;10315360;28;20227;-79
2023/07/24 06:39:07;;;;;;;8.03;6.63;;;22.30;90.20;;;;;;10320441;28;21073;-81
2023/07/24 06:44:11;;;;;;;11.73;8.10;;;22.40;87.20;;;;;;10315242;28;20796;-78
2023/07/24 06:49:13;;;;;;;9.27;7.63;;;22.50;87.90;;;;;;10320299;28;20314;-81
2023/07/24 06:54:15;;;;;;;10.30;7.33;;;22.60;88.30;;;;;;10307313;28;20351;-81
2023/07/24 06:59:18;;;;;;;9.47;8.10;;;22.70;87.20;;;;;;10334865;28;20701;-81
2023/07/24 07:04:20;;;;;;;10.80;8.50;;;22.80;87.10;;;;;;10314764;28;20252;-82
2023/07/24 07:09:22;;;;;;;12.13;7.90;;;22.90;86.90;;;;;;10317197;28;20719;-80
2023/07/24 07:14:26;;;;;;;13.33;7.23;;;22.90;88.10;;;;;;10318601;28;20231;-82
2023/07/24 07:19:28;;;;;;;10.40;8.70;;;22.90;88.00;;;;;;10315287;28;20671;-80
2023/07/24 07:24:30;;;;;;;10.73;8.30;;;22.90;87.60;;;;;;10319648;28;20282;-79
2023/07/24 07:29:34;;;;;;;8.77;7.40;;;22.90;87.80;;;;;;10301043;28;20243;-82
2023/07/24 07:34:38;;;;;;;11.17;7.70;;;22.90;87.60;;;;;;10319352;28;20236;-79
2023/07/24 07:39:40;;;;;;;9.73;8.10;;;22.90;87.80;;;;;;10315196;28;20209;-80
2023/07/24 07:44:43;;;;;;;10.20;7.70;;;23.00;88.20;;;;;;10317823;28;20244;-80
2023/07/24 07:49:46;;;;;;;11.23;8.63;;;22.90;88.30;;;;;;10313747;28;20280;-79
2023/07/24 07:54:48;;;;;;;10.20;7.53;;;23.00;89.00;;;;;;10322440;28;20238;-79
2023/07/24 07:59:52;;;;;;;11.47;7.87;;;23.10;88.70;;;;;;10313156;28;20251;-80
2023/07/24 08:04:54;;;;;;;9.23;8.07;;;23.10;88.90;;;;;;10315558;28;20231;-80
2023/07/24 08:09:56;;;;;;;11.20;7.77;;;23.20;90.00;;;;;;10305076;28;20639;-80
2023/07/24 08:14:59;;;;;;;10.77;9.67;;;23.20;90.50;;;;;;10312311;28;20749;-79
2023/07/24 08:20:02;;;;;;;9.20;7.43;;;23.10;90.80;;;;;;10314518;28;20675;-81
2023/07/24 08:25:05;;;;;;;10.47;9.07;;;23.00;91.60;;;;;;10313375;28;20238;-80
2023/07/24 08:30:09;;;;;;;15.53;10.20;;;22.90;93.30;;;;;;10305474;28;20278;-79
2023/07/24 08:35:11;;;;;;;11.00;9.50;;;22.70;95.20;;;;;;10330406;28;20243;-80
2023/07/24 08:40:13;;;;;;;11.00;9.90;;;22.40;96.70;;;;;;10314501;28;20254;-81
2023/07/24 08:45:17;;;;;;;11.07;9.80;;;21.90;97.10;;;;;;10320827;28;20699;-80
2023/07/24 08:50:21;;;;;;;12.30;11.10;;;21.60;99.10;;;;;;10316917;28;20227;-78
2023/07/24 08:55:25;;;;;;;11.80;10.10;;;21.50;99.90;;;;;;10314828;28;20713;-80
2023/07/24 09:00:29;;;;;;;11.33;10.13;;;21.40;99.90;;;;;;10323055;28;20227;-81
2023/07/24 09:05:31;;;;;;;11.40;9.87;;;21.30;99.90;;;;;;10323323;28;20318;-80
2023/07/24 09:10:33;;;;;;;10.63;9.73;;;21.30;99.90;;;;;;10315119;28;20227;-79
2023/07/24 09:15:44;;;;;;;8.87;7.97;;;21.30;99.90;;;;;;10373176;23;20231;-85
2023/07/24 09:20:47;;;;;;;10.30;8.80;;;21.40;99.90;;;;;;10358726;28;20195;-86
2023/07/24 09:25:49;;;;;;;9.30;8.40;;;21.60;99.90;;;;;;10361191;28;20297;-87
2023/07/24 09:30:58;;;;;;;8.63;7.83;;;21.90;99.90;;;;;;10382246;28;20228;-85
2023/07/24 09:36:00;;;;;;;9.53;6.50;;;22.30;99.90;;;;;;10357120;28;20238;-85
2023/07/24 09:41:03;;;;;;;6.40;5.80;;;22.60;99.90;;;;;;10355111;28;20532;-86
2023/07/24 09:46:07;;;;;;;6.53;5.83;;;22.80;99.90;;;;;;10354664;28;20227;-85
2023/07/24 09:51:13;;;;;;;5.87;5.27;;;22.90;99.90;;;;;;10344533;28;20309;-85
2023/07/24 09:56:18;;;;;;;6.30;5.70;;;22.90;99.90;;;;;;10364007;28;20209;-85
2023/07/24 10:01:22;;;;;;;8.23;6.37;;;23.00;99.90;;;;;;10361741;28;20273;-85
2023/07/24 10:06:26;;;;;;;7.90;6.30;;;23.00;99.90;;;;;;10353353;28;20206;-85
2023/07/24 10:11:28;;;;;;;6.63;6.03;;;23.10;99.90;;;;;;10353805;28;20234;-85
2023/07/24 10:16:33;;;;;;;7.30;6.07;;;23.10;99.90;;;;;;10352888;28;20211;-85
2023/07/24 10:21:35;;;;;;;9.57;7.53;;;23.00;99.90;;;;;;10351715;28;20223;-86
2023/07/24 10:26:37;;;;;;;9.57;7.10;;;23.00;99.90;;;;;;10367645;28;20563;-85
2023/07/24 10:31:41;;;;;;;10.80;8.23;;;23.00;99.90;;;;;;10350237;28;20231;-86
2023/07/24 10:36:43;;;;;;;8.47;7.07;;;22.70;99.90;;;;;;10348596;28;20240;-86
2023/07/24 10:41:46;;;;;;;9.73;8.57;;;22.40;99.90;;;;;;10342420;28;20695;-86
2023/07/24 10:46:49;;;;;;;10.47;9.57;;;22.10;99.90;;;;;;10334548;28;20553;-86
2023/07/24 10:51:56;;;;;;;12.37;11.30;;;21.90;99.90;;;;;;10367711;28;20239;-87
2023/07/24 10:57:00;;;;;;;14.10;12.83;;;21.70;99.90;;;;;;10348691;28;20361;-86
2023/07/24 11:02:05;;;;;;;15.50;14.40;;;21.40;99.90;;;;;;10351872;28;20227;-86
2023/07/24 11:07:07;;;;;;;16.03;14.70;;;21.20;99.90;;;;;;10350961;28;20694;-87
2023/07/24 11:12:14;;;;;;;15.70;14.20;;;20.90;99.90;;;;;;10324252;28;1075379;-89
2023/07/24 11:17:18;;;;;;;11.70;10.70;;;20.60;99.90;;;;;;10367381;28;20231;-87
2023/07/24 11:22:23;;;;;;;15.93;14.73;;;20.30;99.90;;;;;;10361666;28;20235;-85
2023/07/24 11:27:26;;;;;;;12.50;11.40;;;20.10;99.90;;;;;;10355554;28;20653;-86
2023/07/24 11:32:30;;;;;;;15.50;14.10;;;20.00;99.90;;;;;;10345673;28;20233;-85
2023/07/24 11:37:32;;;;;;;14.97;13.67;;;19.90;99.90;;;;;;10351230;28;20255;-86
2023/07/24 11:42:35;;;;;;;14.63;13.30;;;20.10;99.90;;;;;;10353425;28;20231;-86
2023/07/24 11:47:46;;;;;;;13.47;12.17;;;20.20;99.90;;;;;;10350147;28;20207;-86
2023/07/24 11:52:49;;;;;;;12.33;11.20;;;20.60;99.90;;;;;;10339347;28;20223;-88
2023/07/24 11:57:58;;;;;;;12.57;11.47;;;20.90;99.90;;;;;;10351261;28;20203;-85
2023/07/24 12:03:04;;;;;;;11.37;10.47;;;21.00;99.90;;;;;;10358212;28;20227;-88
2023/07/24 12:08:06;;;;;;;12.40;11.30;;;21.00;99.90;;;;;;10351235;28;20247;-86
2023/07/24 12:13:08;;;;;;;11.37;10.47;;;21.00;99.90;;;;;;10353519;28;20223;-85
2023/07/24 12:18:12;;;;;;;11.60;10.60;;;21.00;99.90;;;;;;10373116;28;20196;-85
2023/07/24 12:23:14;;;;;;;11.20;10.03;;;21.10;99.90;;;;;;10349870;28;20298;-85
2023/07/24 12:28:16;;;;;;;10.10;9.20;;;21.30;99.90;;;;;;10365202;28;20226;-86
2023/07/24 12:33:23;;;;;;;11.50;10.40;;;21.40;99.90;;;;;;10355626;28;20671;-86
2023/07/24 12:38:25;;;;;;;10.13;9.30;;;21.60;99.90;;;;;;10354653;28;20210;-85
2023/07/24 12:43:27;;;;;;;10.83;9.77;;;21.80;99.90;;;;;;10358342;28;20234;-86
2023/07/24 12:48:32;;;;;;;8.33;7.60;;;21.80;99.90;;;;;;10373572;28;20655;-85
2023/07/24 12:53:34;;;;;;;9.73;8.93;;;21.80;99.90;;;;;;10354775;28;20365;-86
2023/07/24 12:58:36;;;;;;;9.37;8.67;;;22.00;99.90;;;;;;10355867;28;20691;-86
2023/07/24 13:03:39;;;;;;;9.13;8.33;;;22.30;99.90;;;;;;10355264;28;20230;-86
2023/07/24 13:08:41;;;;;;;9.20;8.30;;;22.70;99.90;;;;;;10355207;28;20311;-86
2023/07/24 13:13:44;;;;;;;8.67;7.87;;;22.90;99.90;;;;;;10348388;28;20230;-86
2023/07/24 13:18:47;;;;;;;8.27;7.50;;;23.10;99.90;;;;;;10360729;28;20235;-87
2023/07/24 13:23:50;;;;;;;7.80;7.10;;;23.20;99.90;;;;;;10356601;28;20247;-87
2023/07/24 13:28:52;;;;;;;8.53;7.70;;;23.30;99.90;;;;;;10352818;28;20227;-87
2023/07/24 13:33:55;;;;;;;6.93;6.43;;;23.40;99.90;;;;;;10353401;28;20632;-87
2023/07/24 13:38:57;;;;;;;5.73;5.20;;;23.60;99.90;;;;;;10352786;28;20214;-87
2023/07/24 13:43:59;;;;;;;7.10;6.40;;;23.70;99.90;;;;;;10367706;28;20235;-86
2023/07/24 13:49:03;;;;;;;6.47;5.87;;;23.80;99.90;;;;;;10354400;28;20402;-85
2023/07/24 13:54:05;;;;;;;6.00;5.40;;;24.00;99.90;;;;;;10348505;28;20223;-89
2023/07/24 13:59:07;;;;;;;5.60;5.10;;;24.00;99.90;;;;;;10370463;28;20206;-89
2023/07/24 14:04:11;;;;;;;5.50;5.00;;;24.00;99.90;;;;;;10353201;28;20227;-87
2023/07/24 14:09:14;;;;;;;4.83;4.43;;;24.10;99.90;;;;;;10357522;28;20227;-86
2023/07/24 14:14:18;;;;;;;4.87;4.40;;;24.20;99.90;;;;;;10351238;28;20885;-88
2023/07/24 14:19:23;;;;;;;6.40;5.80;;;24.10;99.90;;;;;;10366491;28;20221;-86
2023/07/24 14:24:25;;;;;;;5.13;4.70;;;24.20;99.90;;;;;;10347141;28;20686;-86
2023/07/24 14:29:27;;;;;;;4.97;4.47;;;24.20;99.90;;;;;;10349767;28;20289;-85
2023/07/24 14:34:31;;;;;;;5.57;4.60;;;24.40;99.90;;;;;;10350092;28;20278;-86
2023/07/24 14:39:33;;;;;;;8.57;7.77;;;24.50;99.90;;;;;;10349556;28;20287;-87
2023/07/24 14:44:35;;;;;;;5.87;5.00;;;24.50;99.90;;;;;;10350857;28;20266;-87
2023/07/24 14:49:38;;;;;;;4.53;4.13;;;24.70;99.90;;;;;;10350967;28;20226;-86
2023/07/24 14:54:41;;;;;;;5.23;4.60;;;24.80;99.90;;;;;;10367115;28;20227;-87
2023/07/24 14:59:43;;;;;;;5.07;4.57;;;24.90;99.90;;;;;;10349222;28;20274;-86
2023/07/24 15:04:46;;;;;;;4.30;3.90;;;24.90;99.90;;;;;;10351110;28;20227;-86
2023/07/24 15:09:48;;;;;;;4.90;4.40;;;24.90;99.90;;;;;;10350484;28;20317;-88
2023/07/24 15:14:50;;;;;;;4.37;3.97;;;24.90;99.90;;;;;;10314278;23;20656;-82
2023/07/24 15:19:54;;;;;;;4.30;3.97;;;24.90;99.90;;;;;;10257418;28;20205;-81
2023/07/24 15:24:56;;;;;;;4.43;4.03;;;24.80;99.90;;;;;;10253059;28;20235;-81
2023/07/24 15:29:58;;;;;;;3.77;3.47;;;24.90;99.90;;;;;;10257073;28;20304;-82
2023/07/24 15:35:01;;;;;;;4.87;4.47;;;25.00;99.90;;;;;;10255993;28;20224;-81
2023/07/24 15:40:04;;;;;;;4.50;4.10;;;24.90;99.90;;;;;;10251737;28;20201;-81
2023/07/24 15:45:08;;;;;;;5.30;3.90;;;24.60;99.90;;;;;;10264282;28;20240;-81
2023/07/24 15:50:11;;;;;;;5.20;4.40;;;24.50;99.90;;;;;;10258655;28;20229;-82
2023/07/24 15:55:13;;;;;;;4.03;3.67;;;24.30;99.90;;;;;;10257913;28;20228;-82
2023/07/24 16:00:16;;;;;;;5.20;4.70;;;24.10;99.90;;;;;;10257155;28;20252;-83
2023/07/24 16:05:21;;;;;;;4.87;4.47;;;24.10;99.90;;;;;;10259966;28;20315;-82
2023/07/24 16:10:23;;;;;;;4.03;3.67;;;24.00;99.90;;;;;;10256730;28;20333;-82
2023/07/24 16:15:25;;;;;;;4.40;3.97;;;24.10;99.90;;;;;;10255072;28;20243;-82
2023/07/24 16:20:29;;;;;;;4.70;4.30;;;24.00;99.90;;;;;;10254175;28;20921;-81
2023/07/24 16:25:31;;;;;;;6.43;4.60;;;23.80;99.90;;;;;;10252220;28;20256;-82
2023/07/24 16:30:33;;;;;;;5.57;5.07;;;23.60;99.90;;;;;;10245653;28;20588;-82
2023/07/24 16:35:37;;;;;;;4.70;4.30;;;23.60;99.90;;;;;;10253184;28;20232;-82
2023/07/24 16:40:39;;;;;;;5.43;4.90;;;23.50;99.90;;;;;;10252323;28;21257;-81
2023/07/24 16:45:41;;;;;;;8.07;5.43;;;23.50;99.90;;;;;;10253900;28;20221;-82
2023/07/24 16:50:44;;;;;;;5.83;5.10;;;23.50;99.90;;;;;;10255508;28;20315;-81
2023/07/24 16:55:46;;;;;;;5.13;4.63;;;23.50;99.90;;;;;;10254959;28;20231;-82
2023/07/24 17:00:48;;;;;;;6.07;5.47;;;23.50;99.90;;;;;;10268612;28;20197;-82
2023/07/24 17:05:52;;;;;;;5.07;4.37;;;23.50;99.90;;;;;;10253561;28;20251;-82
2023/07/24 17:10:54;;;;;;;4.93;4.53;;;23.40;99.90;;;;;;10251410;28;20287;-81
2023/07/24 17:15:56;;;;;;;4.80;4.30;;;23.40;99.90;;;;;;10251705;28;20232;-82
2023/07/24 17:21:00;;;;;;;5.67;4.73;;;23.30;99.90;;;;;;10259383;28;20291;-82
2023/07/24 17:26:02;;;;;;;5.90;5.20;;;23.10;99.90;;;;;;10258351;28;20233;-82
2023/07/24 17:31:04;;;;;;;5.30;4.80;;;23.00;99.90;;;;;;10258320;28;20270;-81
2023/07/24 17:36:07;;;;;;;4.47;3.63;;;23.00;99.90;;;;;;10267367;28;20252;-81
2023/07/24 17:41:09;;;;;;;4.57;4.17;;;23.00;99.90;;;;;;10260739;28;20285;-82
2023/07/24 17:46:12;;;;;;;4.43;4.07;;;23.00;99.90;;;;;;10260879;28;20243;-81
2023/07/24 17:51:15;;;;;;;4.27;3.97;;;23.00;99.90;;;;;;10260477;28;20879;-82
2023/07/24 17:56:17;;;;;;;3.60;3.20;;;23.00;99.90;;;;;;10264074;28;20231;-81
2023/07/24 18:01:20;;;;;;;3.07;2.83;;;23.00;99.90;;;;;;10271996;28;20209;-81
2023/07/24 18:06:24;;;;;;;3.20;3.00;;;22.90;99.90;;;;;;10258195;28;20232;-82
2023/07/24 18:11:26;;;;;;;4.53;3.50;;;22.90;99.90;;;;;;10262315;28;20221;-82
2023/07/24 18:16:29;;;;;;;4.70;3.00;;;22.80;99.90;;;;;;10259015;28;20232;-81
2023/07/24 18:21:32;;;;;;;3.03;2.83;;;22.70;99.90;;;;;;10257552;28;20276;-81
2023/07/24 18:26:35;;;;;;;3.20;2.93;;;22.70;99.90;;;;;;10271415;28;20229;-81
2023/07/24 18:31:37;;;;;;;2.80;2.60;;;22.60;99.90;;;;;;10260321;28;20225;-81
2023/07/24 18:36:40;;;;;;;2.50;2.40;;;22.50;99.90;;;;;;10254850;28;20227;-82
2023/07/24 18:41:42;;;;;;;2.90;2.43;;;22.50;99.90;;;;;;10254345;28;20585;-80
2023/07/24 18:46:44;;;;;;;3.87;3.47;;;22.40;99.90;;;;;;10254873;28;20300;-81
2023/07/24 18:51:48;;;;;;;3.00;2.80;;;22.30;99.90;;;;;;10255102;28;20236;-82
2023/07/24 18:56:50;;;;;;;3.20;3.00;;;22.20;99.90;;;;;;10253428;28;20197;-81
2023/07/24 19:01:52;;;;;;;3.20;3.00;;;22.10;99.90;;;;;;10254725;28;20341;-82
2023/07/24 19:06:56;;;;;;;3.03;2.90;;;22.10;99.90;;;;;;10253833;28;20215;-81
2023/07/24 19:11:58;;;;;;;3.17;2.97;;;22.00;99.90;;;;;;10255162;28;20228;-82
2023/07/24 19:17:00;;;;;;;2.20;2.10;;;22.00;99.90;;;;;;10255252;28;20649;-81
2023/07/24 19:22:04;;;;;;;3.27;2.90;;;21.90;99.90;;;;;;10253169;28;20498;-80
2023/07/24 19:27:07;;;;;;;3.10;2.90;;;21.80;99.90;;;;;;10253261;28;20299;-82
2023/07/24 19:32:09;;;;;;;2.73;2.63;;;21.70;99.90;;;;;;10255067;28;20731;-81
2023/07/24 19:37:12;;;;;;;2.87;2.77;;;21.60;99.90;;;;;;10254775;28;20209;-80
2023/07/24 19:42:14;;;;;;;3.20;3.00;;;21.60;99.90;;;;;;10253076;28;20225;-81
2023/07/24 19:47:17;;;;;;;3.40;2.93;;;21.60;99.90;;;;;;10250249;28;20706;-80
2023/07/24 19:52:22;;;;;;;3.10;2.90;;;21.50;99.90;;;;;;10250909;28;20641;-80
2023/07/24 19:57:25;;;;;;;3.20;3.00;;;21.50;99.90;;;;;;10251441;28;20209;-80
2023/07/24 20:02:27;;;;;;;2.60;2.50;;;21.40;99.90;;;;;;10261473;28;21010;-81
2023/07/24 20:07:30;;;;;;;3.60;2.73;;;21.40;99.90;;;;;;10251565;28;20288;-80
2023/07/24 20:12:32;;;;;;;3.03;2.83;;;21.30;99.90;;;;;;10264008;28;20641;-80
2023/07/24 20:17:34;;;;;;;2.77;2.63;;;21.30;99.90;;;;;;10251608;28;20283;-81
2023/07/24 20:22:38;;;;;;;2.53;2.43;;;21.30;99.90;;;;;;10250428;28;20229;-81
2023/07/24 20:27:40;;;;;;;3.30;3.00;;;21.30;99.90;;;;;;10250588;28;20204;-80
2023/07/24 20:32:42;;;;;;;2.67;2.53;;;21.20;99.90;;;;;;10249454;28;20266;-80
2023/07/24 20:37:49;;;;;;;3.43;2.93;;;21.20;99.90;;;;;;10250566;28;20300;-81
2023/07/24 20:42:51;;;;;;;3.00;2.80;;;21.20;99.90;;;;;;10249081;28;20573;-80
2023/07/24 20:47:53;;;;;;;3.30;3.10;;;21.10;99.90;;;;;;10250759;28;20404;-81
2023/07/24 20:52:57;;;;;;;3.30;3.10;;;21.10;99.90;;;;;;10252354;28;20236;-80
2023/07/24 20:57:59;;;;;;;3.03;2.83;;;21.10;99.90;;;;;;10259880;28;20216;-80
2023/07/24 21:03:01;;;;;;;3.17;2.97;;;21.00;99.90;;;;;;10265197;28;20228;-81
2023/07/24 21:08:05;;;;;;;3.40;3.20;;;21.00;99.90;;;;;;10258463;28;20213;-81
2023/07/24 21:13:07;;;;;;;2.80;2.70;;;21.00;99.90;;;;;;10308087;23;20232;-87
2023/07/24 21:18:09;;;;;;;3.30;3.10;;;20.90;99.90;;;;;;10354555;28;20215;-88
2023/07/24 21:23:13;;;;;;;3.23;3.03;;;20.90;99.90;;;;;;10362764;28;20348;-86
2023/07/24 21:28:15;;;;;;;3.03;2.80;;;20.80;99.90;;;;;;10363140;28;20211;-86
2023/07/24 21:33:18;;;;;;;2.83;2.63;;;20.80;99.90;;;;;;10365266;28;20261;-86
2023/07/24 21:38:21;;;;;;;2.90;2.70;;;20.70;99.90;;;;;;10356976;28;20748;-87
2023/07/24 21:43:24;;;;;;;3.30;2.80;;;20.60;99.90;;;;;;10356325;28;20861;-86
2023/07/24 21:48:26;;;;;;;2.83;2.63;;;20.50;99.90;;;;;;10358006;28;20212;-86
2023/07/24 21:53:29;;;;;;;4.30;3.90;;;20.50;99.90;;;;;;10367955;28;20231;-85
2023/07/24 21:58:32;;;;;;;4.47;4.07;;;20.50;99.90;;;;;;10357416;28;20211;-86
2023/07/24 22:03:34;;;;;;;3.00;2.80;;;20.50;99.90;;;;;;10355997;28;20219;-86
2023/07/24 22:08:37;;;;;;;3.70;3.47;;;20.60;99.90;;;;;;10354964;28;20200;-87
2023/07/24 22:13:40;;;;;;;3.97;3.67;;;20.60;99.90;;;;;;10354315;28;20234;-87
2023/07/24 22:18:43;;;;;;;3.63;3.40;;;20.60;99.90;;;;;;10355919;28;20651;-87
2023/07/24 22:23:46;;;;;;;3.90;3.60;;;20.50;99.90;;;;;;10353612;28;20219;-86
2023/07/24 22:28:48;;;;;;;3.80;3.47;;;20.60;99.90;;;;;;10369798;28;20358;-85
2023/07/24 22:33:50;;;;;;;4.03;3.73;;;20.60;99.90;;;;;;10353441;28;20267;-87
2023/07/24 22:38:54;;;;;;;4.00;3.60;;;20.50;99.90;;;;;;10352551;28;20203;-86
2023/07/24 22:43:56;;;;;;;3.87;3.47;;;20.50;99.90;;;;;;10351829;28;20219;-86
2023/07/24 22:48:58;;;;;;;4.47;4.07;;;20.50;99.90;;;;;;10337283;28;20298;-86
2023/07/24 22:54:02;;;;;;;5.70;5.10;;;20.50;99.90;;;;;;10368913;28;20245;-86
2023/07/24 22:59:24;;;;;;;4.10;3.80;;;20.50;99.90;;;;;;10352653;28;20199;-86
2023/07/24 23:04:26;;;;;;;5.50;4.33;;;20.40;99.90;;;;;;10353380;28;20366;-88
2023/07/24 23:09:29;;;;;;;6.03;4.60;;;20.40;99.90;;;;;;10351389;28;20324;-87
2023/07/24 23:14:32;;;;;;;3.07;2.87;;;20.30;99.90;;;;;;10350427;28;20255;-86
2023/07/24 23:19:34;;;;;;;4.57;3.30;;;20.30;99.90;;;;;;10367928;28;20207;-86
2023/07/24 23:24:37;;;;;;;4.43;4.03;;;20.30;99.90;;;;;;10350389;28;20215;-86
2023/07/24 23:29:39;;;;;;;6.90;3.80;;;20.40;99.90;;;;;;10347953;28;21239;-86
2023/07/24 23:34:41;;;;;;;3.57;3.37;;;20.40;99.90;;;;;;10363937;28;20231;-86
2023/07/24 23:39:45;;;;;;;4.37;4.07;;;20.40;99.90;;;;;;10352028;28;20207;-86
2023/07/24 23:44:47;;;;;;;4.10;3.80;;;20.40;99.90;;;;;;10351928;28;20221;-86
2023/07/24 23:49:49;;;;;;;6.20;5.70;;;20.40;99.90;;;;;;10351532;28;20670;-86
2023/07/24 23:54:54;;;;;;;4.23;3.83;;;20.40;99.90;;;;;;10359830;28;20226;-85
2023/07/24 23:59:56;;;;;;;3.93;3.67;;;20.40;99.90;;;;;;10366553;28;20234;-86
